Terminal Aerodrome Forecast
Issued by NWS Shreveport, LA

Home | Current Version | Previous Version | Text Only | Print | Product List | Glossary On
Versions: 1 2 3 4 5 6 7 8 9 10 11 12 13 14 15 16 17 18 19 20 21 22 23
000
FTUS44 KSHV 231133
TAFELD
TAF
KELD 231133Z 2312/2412 35004KT P6SM SCT020
      TEMPO 2312/2315 1SM BR BKN001
     FM232300 28006KT P6SM VCTS OVC050CB
     FM240400 32007KT P6SM SCT050 OVC100=

USA.gov is the U.S. government's official web portal to all federal, state and local government web resources and services.